Time;durP1;ratioP1;P1;durP2;ratioP2;P2;SDS_P1;SDS_P2;PMS_P1;PMS_P2;Temp;Humidity;BMP_temperature;BMP_pressure;BME280_temperature;BME280_humidity;BME280_pressure;Samples;Min_cycle;Max_cycle;Signal;HPM_P1;HPM_P2
2024/01/14 00:01:54;;;;;;;4.82;1.40;;;;;;;18.39;39.74;101210.31;5006112;28;20126;-73
2024/01/14 00:04:19;;;;;;;;;;;;;;;18.45;39.67;101211.47;5023477;28;20398;-74
2024/01/14 00:06:45;;;;;;;2.65;1.40;;;;;;;18.42;39.61;101207.34;5024215;28;19921;-74
2024/01/14 00:09:12;;;;;;;1.27;1.00;;;;;;;18.35;39.60;101201.06;5021744;28;20037;-74
2024/01/14 00:11:38;;;;;;;1.77;0.90;;;;;;;18.37;39.69;101199.91;5024379;28;20120;-74
2024/01/14 00:14:04;;;;;;;3.65;1.00;;;;;;;18.28;39.72;101192.97;5023816;28;20746;-74
2024/01/14 00:16:34;;;;;;;2.13;1.00;;;;;;;18.37;39.83;101205.19;5006168;28;20044;-74
2024/01/14 00:19:09;;;;;;;2.55;1.02;;;;;;;18.25;39.74;101188.00;5006218;28;20424;-74
2024/01/14 00:21:35;;;;;;;2.65;1.20;;;;;;;18.29;39.96;101194.59;4988085;28;20144;-74
2024/01/14 00:24:03;;;;;;;3.35;1.20;;;;;;;18.20;39.86;101179.78;5021134;28;20045;-74
2024/01/14 00:26:29;;;;;;;3.30;1.00;;;;;;;18.32;39.90;101191.69;4995183;28;20045;-74
2024/01/14 00:28:57;;;;;;;1.77;0.68;;;;;;;18.31;39.84;101194.44;5005459;28;20041;-74
2024/01/14 00:31:23;;;;;;;2.67;1.20;;;;;;;18.30;39.79;101196.25;5023571;28;20033;-73
2024/01/14 00:33:50;;;;;;;2.47;1.33;;;;;;;18.23;39.85;101190.00;4992667;28;20091;-74
2024/01/14 00:36:17;;;;;;;2.63;1.20;;;;;;;18.16;39.81;101194.25;5018578;28;20520;-74
2024/01/14 00:38:42;;;;;;;4.00;1.30;;;;;;;18.19;39.98;101203.66;5024872;28;20892;-73
2024/01/14 00:41:08;;;;;;;2.60;1.38;;;;;;;18.20;40.02;101195.59;5020984;28;20041;-74
2024/01/14 00:43:33;;;;;;;2.63;1.10;;;;;;;18.23;39.79;101205.81;5005228;28;20048;-74
2024/01/14 00:46:00;;;;;;;2.97;1.58;;;;;;;18.29;39.66;101205.16;5023946;28;20056;-74
2024/01/14 00:48:26;;;;;;;3.45;1.02;;;;;;;18.27;39.76;101208.94;5002998;28;20057;-74
2024/01/14 00:50:51;;;;;;;1.88;1.02;;;;;;;18.04;40.19;101195.53;5023308;28;20168;-74
2024/01/14 00:53:17;;;;;;;1.35;1.10;;;;;;;18.12;40.01;101199.00;5020167;28;20037;-74
2024/01/14 00:55:42;;;;;;;3.03;1.52;;;;;;;18.24;40.00;101204.00;5019866;28;20635;-74
2024/01/14 00:58:08;;;;;;;4.03;1.35;;;;;;;18.20;40.09;101190.31;5009018;28;20043;-74
2024/01/14 01:00:33;;;;;;;2.45;1.00;;;;;;;18.14;39.77;101185.69;5017331;28;20592;-74
2024/01/14 01:02:59;;;;;;;1.90;0.90;;;;;;;18.14;40.02;101187.50;5006189;28;20052;-74
2024/01/14 01:05:24;;;;;;;3.22;1.30;;;;;;;18.23;39.88;101186.53;5006468;28;20065;-74
2024/01/14 01:07:50;;;;;;;2.15;1.25;;;;;;;18.27;39.88;101186.03;5028527;28;20037;-74
2024/01/14 01:10:15;;;;;;;3.10;1.15;;;;;;;18.30;39.77;101198.91;5022172;28;20099;-73
2024/01/14 01:12:41;;;;;;;3.38;1.38;;;;;;;18.27;39.91;101180.75;5021432;28;20037;-73
2024/01/14 01:15:07;;;;;;;2.80;0.93;;;;;;;18.27;39.94;101195.75;5004184;28;20033;-74
2024/01/14 01:17:33;;;;;;;2.95;1.10;;;;;;;18.20;40.04;101179.78;5021211;28;20095;-74
2024/01/14 01:20:00;;;;;;;2.42;0.90;;;;;;;18.24;39.91;101186.38;5022766;28;20501;-74
2024/01/14 01:22:25;;;;;;;2.75;1.10;;;;;;;18.23;40.05;101183.88;5003965;28;20132;-74
2024/01/14 01:24:51;;;;;;;3.15;1.13;;;;;;;18.18;40.03;101181.75;5022902;28;20053;-74
2024/01/14 01:27:16;;;;;;;2.85;0.93;;;;;;;18.20;40.06;101174.50;5017590;28;20414;-74
2024/01/14 01:29:42;;;;;;;1.73;0.90;;;;;;;18.20;40.01;101182.41;5023738;28;20041;-73
2024/01/14 01:32:09;;;;;;;2.67;1.00;;;;;;;18.16;40.23;101172.34;5020401;28;20041;-74
2024/01/14 01:34:35;;;;;;;2.15;0.98;;;;;;;18.18;40.22;101165.09;5022543;28;20435;-74
2024/01/14 01:37:02;;;;;;;3.63;1.15;;;;;;;18.04;40.01;101150.72;5018128;28;20037;-73
2024/01/14 01:39:27;;;;;;;1.95;0.80;;;;;;;18.07;40.24;101151.22;5006460;28;20056;-74
2024/01/14 01:41:53;;;;;;;1.33;0.70;;;;;;;18.07;40.11;101142.50;5019453;28;20646;-74
2024/01/14 01:44:19;;;;;;;3.45;1.00;;;;;;;18.20;39.89;101134.97;5003217;28;20536;-74
2024/01/14 01:46:45;;;;;;;0.65;0.57;;;;;;;18.19;39.68;101122.78;5022747;28;20520;-74
2024/01/14 01:49:11;;;;;;;2.95;0.98;;;;;;;18.34;39.62;101133.50;5023983;28;20113;-73
2024/01/14 01:51:38;;;;;;;1.42;0.60;;;;;;;18.50;39.57;101143.25;5004970;28;20455;-74
2024/01/14 01:54:03;;;;;;;3.00;1.48;;;;;;;18.47;39.65;101138.28;5005579;28;20042;-74
2024/01/14 01:56:31;;;;;;;4.45;1.00;;;;;;;18.41;39.61;101124.78;5023552;28;20063;-74
2024/01/14 01:58:57;;;;;;;1.05;0.70;;;;;;;18.45;39.40;101120.00;5004692;28;20050;-72
2024/01/14 02:01:23;;;;;;;1.33;0.60;;;;;;;18.39;39.76;101115.38;5001794;28;20046;-73
2024/01/14 02:03:52;;;;;;;2.45;0.93;;;;;;;18.46;39.56;101134.81;5022577;28;20044;-72
2024/01/14 02:06:18;;;;;;;2.15;0.98;;;;;;;18.40;39.74;101133.69;5006010;28;20029;-72
2024/01/14 02:08:44;;;;;;;1.10;0.60;;;;;;;18.33;39.85;101127.41;5020666;28;20045;-72
2024/01/14 02:11:09;;;;;;;0.45;0.28;;;;;;;18.38;39.63;101126.91;5021232;28;20038;-72
2024/01/14 02:13:35;;;;;;;2.90;0.82;;;;;;;18.40;39.92;101130.22;5021662;28;20045;-72
2024/01/14 02:16:01;;;;;;;2.40;1.30;;;;;;;18.37;39.88;101135.81;5022624;28;20045;-72
2024/01/14 02:18:26;;;;;;;1.52;1.02;;;;;;;18.32;39.97;101130.22;5026265;28;20041;-72
2024/01/14 02:20:52;;;;;;;2.63;0.70;;;;;;;18.29;39.81;101123.44;5025639;28;20069;-72
2024/01/14 02:23:20;;;;;;;3.08;1.10;;;;;;;18.23;39.95;101120.63;5024491;28;20471;-73
2024/01/14 02:25:46;;;;;;;1.38;0.80;;;;;;;18.26;40.06;101125.56;5021601;28;20069;-72
2024/01/14 02:28:14;;;;;;;0.98;0.80;;;;;;;18.23;40.08;101118.00;5027074;28;20091;-72
2024/01/14 02:30:40;;;;;;;3.05;0.77;;;;;;;18.20;40.21;101124.41;5024631;28;20081;-72
2024/01/14 02:33:07;;;;;;;1.83;0.60;;;;;;;18.17;40.27;101116.00;5024302;28;20037;-73
2024/01/14 02:35:33;;;;;;;1.23;0.85;;;;;;;18.16;40.25;101117.00;5008941;28;20048;-72
2024/01/14 02:37:58;;;;;;;1.85;0.90;;;;;;;18.11;40.22;101115.66;5022219;28;20509;-73
2024/01/14 02:40:24;;;;;;;1.00;0.65;;;;;;;18.10;40.20;101111.38;5009829;28;20533;-72
2024/01/14 02:42:50;;;;;;;1.13;0.32;;;;;;;18.16;40.33;101103.81;5024101;28;20033;-73
2024/01/14 02:45:15;;;;;;;1.55;0.57;;;;;;;18.12;40.15;101101.47;5019561;28;20037;-72
2024/01/14 02:47:41;;;;;;;1.30;0.40;;;;;;;18.13;40.17;101107.56;5005919;28;20033;-73
2024/01/14 02:50:07;;;;;;;0.95;0.70;;;;;;;18.10;40.32;101111.38;5008945;28;20075;-72
2024/01/14 02:52:32;;;;;;;2.13;0.93;;;;;;;18.11;40.14;101107.75;5023509;28;20049;-72
2024/01/14 02:54:58;;;;;;;0.77;0.45;;;;;;;18.07;40.36;101110.88;5023294;28;20339;-73
2024/01/14 02:57:24;;;;;;;1.75;0.77;;;;;;;17.93;40.15;101085.13;5008635;28;20033;-73
2024/01/14 02:59:49;;;;;;;1.90;0.70;;;;;;;18.00;40.16;101112.50;5008581;28;20563;-72
2024/01/14 03:02:16;;;;;;;2.17;0.90;;;;;;;18.00;40.25;101108.06;5024385;28;20064;-73
2024/01/14 03:04:43;;;;;;;1.02;0.60;;;;;;;18.08;40.06;101115.97;5021202;28;20129;-72
2024/01/14 03:07:08;;;;;;;1.52;0.90;;;;;;;18.22;40.01;101122.44;5024262;28;20440;-72
2024/01/14 03:09:34;;;;;;;1.83;1.10;;;;;;;18.24;39.74;101115.19;5024319;28;20084;-72
2024/01/14 03:11:59;;;;;;;1.80;0.57;;;;;;;18.30;39.87;101111.91;5022966;28;20386;-72
2024/01/14 03:14:25;;;;;;;1.90;0.75;;;;;;;18.34;39.58;101118.50;5027851;28;20539;-72
2024/01/14 03:16:50;;;;;;;1.17;0.73;;;;;;;18.29;39.90;101104.97;5026981;28;20041;-72
2024/01/14 03:19:16;;;;;;;1.80;0.80;;;;;;;18.34;39.87;101109.78;5023855;28;20038;-72
2024/01/14 03:21:42;;;;;;;1.45;0.60;;;;;;;18.32;39.92;101106.50;5026039;28;20033;-73
2024/01/14 03:24:07;;;;;;;0.80;0.45;;;;;;;18.17;39.92;101095.75;5025066;28;20033;-73
2024/01/14 03:26:34;;;;;;;1.58;0.45;;;;;;;18.18;39.86;101094.75;5026208;28;20049;-73
2024/01/14 03:29:00;;;;;;;2.10;0.80;;;;;;;18.14;40.05;101104.00;5007310;28;20524;-73
2024/01/14 03:31:25;;;;;;;0.47;0.32;;;;;;;18.11;40.03;101104.28;5008452;28;20411;-72
2024/01/14 03:33:51;;;;;;;1.60;0.75;;;;;;;18.15;40.09;101110.09;5012538;28;20041;-72
2024/01/14 03:36:16;;;;;;;3.75;1.33;;;;;;;18.15;40.33;101108.28;5024752;28;20049;-72
2024/01/14 03:38:42;;;;;;;2.47;0.75;;;;;;;18.15;40.10;101104.81;5022041;28;20110;-72
2024/01/14 03:41:08;;;;;;;1.52;0.85;;;;;;;18.03;40.08;101088.47;5032975;28;20068;-72
2024/01/14 03:43:33;;;;;;;3.13;0.85;;;;;;;18.06;40.25;101099.50;5011393;28;20168;-72
2024/01/14 03:45:59;;;;;;;2.15;0.70;;;;;;;17.97;40.31;101081.22;5014103;28;20045;-73
2024/01/14 03:48:25;;;;;;;2.75;0.70;;;;;;;18.03;40.24;101086.66;5010379;28;20663;-71
2024/01/14 03:50:50;;;;;;;2.80;1.00;;;;;;;18.00;40.35;101084.34;5010344;28;20103;-73
2024/01/14 03:53:16;;;;;;;3.58;0.85;;;;;;;17.99;40.49;101074.78;5010090;28;20056;-72
2024/01/14 03:55:42;;;;;;;0.73;0.43;;;;;;;18.02;40.32;101084.19;4995346;28;20034;-72
2024/01/14 03:58:08;;;;;;;3.05;1.15;;;;;;;18.01;40.25;101078.09;5024011;28;20053;-72
2024/01/14 04:00:34;;;;;;;1.38;0.40;;;;;;;17.74;40.40;101047.53;4999822;28;20142;-72
2024/01/14 04:02:59;;;;;;;1.70;0.60;;;;;;;17.96;40.28;101090.09;5028695;28;20044;-73
2024/01/14 04:05:25;;;;;;;1.35;0.50;;;;;;;17.89;40.41;101076.72;5027337;28;20037;-72
2024/01/14 04:07:50;;;;;;;1.42;0.60;;;;;;;17.91;40.40;101071.31;5010388;28;20049;-72
2024/01/14 04:10:16;;;;;;;3.25;0.85;;;;;;;18.00;40.30;101081.72;5007847;28;20037;-72
2024/01/14 04:12:42;;;;;;;2.42;0.90;;;;;;;18.02;40.22;101079.75;5007088;28;20037;-72
2024/01/14 04:15:08;;;;;;;2.17;0.80;;;;;;;18.09;40.13;101075.47;5025086;28;20394;-72
2024/01/14 04:17:33;;;;;;;1.67;0.70;;;;;;;18.12;39.78;101051.41;5025041;28;20068;-72
2024/01/14 04:20:02;;;;;;;1.17;0.70;;;;;;;18.30;39.65;101061.81;5025236;28;20044;-73
2024/01/14 04:22:28;;;;;;;1.33;0.50;;;;;;;18.35;39.73;101063.97;5024054;28;20115;-72
2024/01/14 04:24:53;;;;;;;2.05;1.17;;;;;;;18.27;39.59;101051.59;5021741;28;20643;-72
2024/01/14 04:27:19;;;;;;;1.75;0.70;;;;;;;18.30;39.60;101039.91;5030026;28;20041;-73
2024/01/14 04:29:44;;;;;;;1.75;0.50;;;;;;;18.25;39.64;101035.13;5022595;28;20320;-72
2024/01/14 04:32:10;;;;;;;2.20;0.70;;;;;;;18.36;39.84;101049.81;4991769;28;20489;-72
2024/01/14 04:34:36;;;;;;;0.28;0.20;;;;;;;18.35;39.73;101053.44;5025793;28;20049;-73
2024/01/14 04:37:02;;;;;;;2.53;0.60;;;;;;;18.29;39.96;101043.53;5021555;28;20038;-72
2024/01/14 04:39:28;;;;;;;0.55;0.47;;;;;;;18.22;39.93;101032.00;5025411;28;20569;-72
2024/01/14 04:41:54;;;;;;;3.17;0.90;;;;;;;18.26;39.96;101041.22;5021607;28;20103;-72
2024/01/14 04:44:19;;;;;;;1.52;0.93;;;;;;;18.22;40.10;101042.53;5024101;28;20037;-73
2024/01/14 04:46:45;;;;;;;1.55;0.68;;;;;;;18.19;40.15;101035.78;5028340;28;20570;-73
2024/01/14 04:49:11;;;;;;;2.25;0.63;;;;;;;18.17;40.18;101029.84;5024643;28;20040;-72
2024/01/14 04:51:38;;;;;;;1.85;0.70;;;;;;;17.95;40.27;101002.31;5007669;28;20048;-72
2024/01/14 04:54:03;;;;;;;2.47;0.47;;;;;;;18.04;40.34;101025.06;5025290;28;20037;-72
2024/01/14 04:56:29;;;;;;;2.13;0.63;;;;;;;17.87;40.22;100998.84;5023117;28;20474;-72
2024/01/14 04:58:55;;;;;;;1.83;0.80;;;;;;;18.03;40.38;101036.59;5024155;28;20091;-72
2024/01/14 05:01:20;;;;;;;1.50;0.82;;;;;;;18.03;40.30;101031.31;5017682;28;20120;-72
2024/01/14 05:03:46;;;;;;;0.70;0.50;;;;;;;18.00;40.46;101026.38;5022770;28;20041;-72
2024/01/14 05:06:12;;;;;;;2.63;1.13;;;;;;;17.96;40.53;101025.06;5021126;28;20037;-72
2024/01/14 05:08:40;;;;;;;2.55;0.90;;;;;;;18.00;40.50;101022.91;5020614;28;20032;-73
2024/01/14 05:11:06;;;;;;;1.35;0.70;;;;;;;17.99;40.35;101021.28;5024919;28;20132;-72
2024/01/14 05:13:32;;;;;;;1.65;0.60;;;;;;;17.93;40.52;101008.72;5025596;28;20136;-72
2024/01/14 05:15:57;;;;;;;0.65;0.60;;;;;;;17.91;40.51;101005.44;5027785;28;20055;-72
2024/01/14 05:18:23;;;;;;;2.15;0.98;;;;;;;17.84;40.49;100996.53;5005725;28;20138;-72
2024/01/14 05:20:48;;;;;;;2.75;1.15;;;;;;;17.86;40.51;101003.28;5025153;28;20056;-72
2024/01/14 05:23:14;;;;;;;0.65;0.50;;;;;;;17.88;40.45;101008.41;5028222;28;20045;-72
2024/01/14 05:25:40;;;;;;;2.20;0.98;;;;;;;17.85;40.41;100993.75;5019475;28;20552;-72
2024/01/14 05:28:05;;;;;;;2.00;0.90;;;;;;;17.88;40.28;100993.41;4991922;28;20142;-72
2024/01/14 05:30:31;;;;;;;1.80;0.88;;;;;;;17.92;40.35;101000.00;5022482;28;20053;-72
2024/01/14 05:32:56;;;;;;;2.15;0.70;;;;;;;17.75;40.18;100972.81;5003781;28;20041;-72
2024/01/14 05:35:22;;;;;;;3.80;0.95;;;;;;;18.02;40.15;100994.59;5020529;28;20461;-72
2024/01/14 05:37:47;;;;;;;1.75;0.88;;;;;;;18.23;40.00;101002.84;5022336;28;20061;-73
2024/01/14 05:40:13;;;;;;;3.65;0.80;;;;;;;18.29;39.72;100988.16;5030203;28;20040;-73
2024/01/14 05:42:40;;;;;;;3.45;0.73;;;;;;;18.39;39.76;101002.84;5023085;28;20046;-72
2024/01/14 05:45:07;;;;;;;2.47;0.90;;;;;;;18.40;39.59;100990.47;5023105;28;20037;-72
2024/01/14 05:47:33;;;;;;;2.63;0.77;;;;;;;18.37;39.79;100991.63;5021693;28;20080;-72
2024/01/14 05:49:59;;;;;;;1.42;0.77;;;;;;;18.34;39.65;100985.88;5024858;28;20061;-72
2024/01/14 05:52:25;;;;;;;2.47;0.82;;;;;;;18.41;39.84;100989.47;4997320;28;20128;-73
2024/01/14 05:54:50;;;;;;;0.93;0.45;;;;;;;18.36;39.77;100978.63;5025742;28;20037;-72
2024/01/14 05:57:16;;;;;;;2.58;0.70;;;;;;;18.37;39.96;100990.81;5028058;28;20056;-72
2024/01/14 05:59:42;;;;;;;4.65;1.02;;;;;;;18.41;39.85;100987.66;5008762;28;20037;-72
2024/01/14 06:02:08;;;;;;;1.88;0.90;;;;;;;18.37;39.84;100996.91;5023603;28;20045;-72
2024/01/14 06:04:33;;;;;;;1.58;0.45;;;;;;;18.32;40.01;100978.13;5009698;28;20575;-72
2024/01/14 06:06:59;;;;;;;0.95;0.50;;;;;;;18.26;39.94;100964.78;5029257;28;20072;-72
2024/01/14 06:09:24;;;;;;;0.70;0.60;;;;;;;18.31;40.08;100980.91;5022130;28;20442;-72
2024/01/14 06:11:50;;;;;;;2.03;0.45;;;;;;;18.19;40.10;100961.16;5007004;28;20049;-72
2024/01/14 06:14:15;;;;;;;1.50;0.60;;;;;;;18.31;40.25;100970.34;5010774;28;20044;-73
2024/01/14 06:16:41;;;;;;;2.65;0.63;;;;;;;18.30;39.99;100960.81;5027316;28;20682;-72
2024/01/14 06:19:06;;;;;;;3.38;0.95;;;;;;;18.26;40.26;100962.97;5028062;28;20041;-72
2024/01/14 06:21:32;;;;;;;3.03;0.65;;;;;;;18.24;40.21;100962.31;5024909;28;20107;-73
2024/01/14 06:23:58;;;;;;;2.40;0.98;;;;;;;18.15;40.25;100947.50;5025558;28;20052;-72
2024/01/14 06:26:23;;;;;;;1.63;0.75;;;;;;;18.18;40.35;100957.69;5025039;28;20056;-73
2024/01/14 06:28:49;;;;;;;1.40;0.55;;;;;;;18.19;40.26;100959.34;5009243;28;20037;-73
2024/01/14 06:31:15;;;;;;;1.83;0.80;;;;;;;18.09;40.35;100940.22;5027560;28;20041;-73
2024/01/14 06:33:40;;;;;;;3.17;0.70;;;;;;;18.11;40.33;100939.06;5020586;28;20034;-72
2024/01/14 06:36:06;;;;;;;1.30;0.70;;;;;;;18.18;40.36;100946.34;4994913;28;20040;-72
2024/01/14 06:38:34;;;;;;;1.20;0.57;;;;;;;18.15;40.35;100942.22;5024058;28;20028;-72
2024/01/14 06:41:00;;;;;;;2.22;0.93;;;;;;;18.14;40.40;100937.94;5026466;28;20069;-72
2024/01/14 06:43:25;;;;;;;1.88;0.57;;;;;;;18.13;40.34;100931.00;5023938;28;20470;-72
2024/01/14 06:45:51;;;;;;;1.13;0.70;;;;;;;18.02;40.29;100920.81;5027644;28;20099;-72
2024/01/14 06:48:17;;;;;;;1.05;0.70;;;;;;;18.08;40.30;100926.22;5010274;28;20091;-73
2024/01/14 06:50:42;;;;;;;1.95;0.70;;;;;;;18.06;40.21;100928.22;5025316;28;20030;-72
2024/01/14 06:53:08;;;;;;;0.90;0.50;;;;;;;18.09;40.48;100935.78;5023278;28;20053;-72
2024/01/14 06:55:33;;;;;;;0.90;0.40;;;;;;;18.05;40.41;100923.94;5025371;28;20041;-72
2024/01/14 06:57:59;;;;;;;3.10;0.85;;;;;;;18.06;40.46;100925.59;5018978;28;20033;-72
2024/01/14 07:00:25;;;;;;;2.78;1.20;;;;;;;18.05;40.39;100917.84;5024518;28;20704;-73
2024/01/14 07:02:51;;;;;;;3.95;0.80;;;;;;;18.06;40.33;100922.13;5024323;28;20037;-73
2024/01/14 07:05:16;;;;;;;1.60;0.75;;;;;;;17.98;40.15;100908.97;4992016;28;20063;-72
2024/01/14 07:07:44;;;;;;;2.08;1.00;;;;;;;18.02;40.25;100923.44;5005895;28;20038;-72
2024/01/14 07:10:10;;;;;;;0.93;0.75;;;;;;;18.02;40.57;100920.81;5023908;28;20032;-73
2024/01/14 07:12:35;;;;;;;2.97;0.90;;;;;;;18.09;40.38;100912.06;5028823;28;20392;-72
2024/01/14 07:15:01;;;;;;;2.08;0.73;;;;;;;18.25;40.03;100915.69;5029033;28;20079;-72
2024/01/14 07:17:26;;;;;;;1.58;1.05;;;;;;;18.19;39.96;100900.53;5023543;28;20064;-72
2024/01/14 07:19:52;;;;;;;1.15;0.65;;;;;;;17.92;40.49;100899.88;5028061;28;20731;-72
2024/01/14 07:22:17;;;;;;;3.03;0.80;;;;;;;17.98;40.97;100922.13;5006988;28;20044;-71
2024/01/14 07:24:43;;;;;;;0.85;0.45;;;;;;;18.03;40.94;100919.81;5023952;28;20386;-72
2024/01/14 07:27:08;;;;;;;1.85;0.90;;;;;;;18.06;40.90;100914.22;5008616;28;20115;-72
2024/01/14 07:29:34;;;;;;;1.52;0.68;;;;;;;18.13;40.94;100917.81;5006304;28;20495;-72
2024/01/14 07:31:59;;;;;;;1.83;0.93;;;;;;;18.22;40.66;100916.00;5006204;28;20041;-72
2024/01/14 07:34:26;;;;;;;1.95;0.80;;;;;;;18.37;40.53;100922.25;5025458;28;20074;-72
2024/01/14 07:36:51;;;;;;;1.17;0.47;;;;;;;18.49;40.28;100918.28;5026270;28;20061;-72
2024/01/14 07:39:17;;;;;;;0.70;0.40;;;;;;;18.64;39.97;100911.34;5006886;28;20402;-72
2024/01/14 07:41:42;;;;;;;3.28;1.13;;;;;;;18.64;39.87;100898.16;5021148;28;20052;-72
2024/01/14 07:44:12;;;;;;;1.27;0.50;;;;;;;18.63;39.71;100880.69;5026604;28;20045;-72
2024/01/14 07:46:38;;;;;;;1.15;1.02;;;;;;;18.75;39.75;100898.78;4990196;28;20037;-72
2024/01/14 07:49:03;;;;;;;0.57;0.32;;;;;;;18.76;39.69;100903.88;5025536;28;20398;-72
2024/01/14 07:51:29;;;;;;;1.95;0.80;;;;;;;18.71;39.89;100893.84;5026895;28;20037;-72
2024/01/14 07:53:54;;;;;;;1.20;0.80;;;;;;;18.75;39.68;100902.25;5006018;28;20528;-72
2024/01/14 07:56:20;;;;;;;1.63;0.77;;;;;;;18.72;39.74;100907.88;5022006;28;20343;-72
2024/01/14 07:58:46;;;;;;;2.80;0.93;;;;;;;18.76;39.75;100914.44;5023951;28;20049;-72
2024/01/14 08:01:11;;;;;;;2.60;0.65;;;;;;;18.83;39.53;100911.94;5009003;28;20030;-72
2024/01/14 08:03:37;;;;;;;1.15;0.47;;;;;;;18.86;39.46;100908.97;5033023;28;20037;-72
2024/01/14 08:06:03;;;;;;;2.42;0.90;;;;;;;18.86;39.43;100901.06;5024718;28;20052;-71
2024/01/14 08:08:28;;;;;;;3.13;1.30;;;;;;;18.66;40.17;100908.53;5025802;28;20111;-72
2024/01/14 08:10:54;;;;;;;3.08;0.93;;;;;;;18.69;40.17;100916.94;5026984;28;20052;-72
2024/01/14 08:13:20;;;;;;;1.13;0.60;;;;;;;18.69;40.07;100910.84;5023885;28;20037;-71
2024/01/14 08:15:45;;;;;;;1.95;0.73;;;;;;;18.79;40.02;100908.81;5017093;28;20045;-72
2024/01/14 08:18:11;;;;;;;1.55;0.70;;;;;;;18.84;39.75;100901.19;5026102;28;20477;-72
2024/01/14 08:20:37;;;;;;;2.22;0.80;;;;;;;18.91;39.76;100904.81;5017364;28;20041;-72
2024/01/14 08:23:02;;;;;;;3.10;1.02;;;;;;;18.92;39.68;100898.53;5022407;28;20119;-72
2024/01/14 08:25:28;;;;;;;1.02;0.70;;;;;;;18.97;39.66;100898.84;5024347;28;20423;-71
2024/01/14 08:27:53;;;;;;;4.03;1.30;;;;;;;18.93;39.73;100904.66;4998039;28;20033;-72
2024/01/14 08:30:19;;;;;;;3.42;0.90;;;;;;;18.92;39.61;100889.81;5019436;28;20102;-71
2024/01/14 08:32:45;;;;;;;1.35;0.52;;;;;;;18.92;39.74;100888.00;5022742;28;20492;-72
2024/01/14 08:35:17;;;;;;;2.65;1.02;;;;;;;18.95;39.78;100889.47;5003466;28;20103;-71
2024/01/14 08:37:43;;;;;;;5.88;1.50;;;;;;;18.87;39.72;100882.41;5024552;28;20041;-72
2024/01/14 08:40:10;;;;;;;1.58;0.65;;;;;;;18.94;39.92;100888.63;5003995;28;20056;-72
2024/01/14 08:42:36;;;;;;;1.38;0.68;;;;;;;18.90;39.64;100883.88;5022762;28;20489;-72
2024/01/14 08:45:03;;;;;;;2.58;0.90;;;;;;;18.87;39.62;100866.59;4985313;28;20052;-72
2024/01/14 08:47:28;;;;;;;1.77;1.00;;;;;;;18.89;39.66;100877.78;5018946;28;20048;-72
2024/01/14 08:49:54;;;;;;;1.45;0.82;;;;;;;18.87;39.78;100878.97;5004096;28;20042;-72
2024/01/14 08:52:19;;;;;;;1.92;0.80;;;;;;;18.78;39.70;100861.50;5006404;28;20063;-72
2024/01/14 08:54:45;;;;;;;4.05;1.13;;;;;;;18.84;39.66;100872.19;5002723;28;20056;-72
2024/01/14 08:57:11;;;;;;;2.10;1.10;;;;;;;18.84;39.63;100866.06;5003882;28;20033;-72
2024/01/14 08:59:37;;;;;;;2.22;0.80;;;;;;;18.76;39.76;100860.84;5016779;28;20048;-72
2024/01/14 09:02:03;;;;;;;2.05;1.00;;;;;;;18.79;39.74;100866.59;5017538;28;20398;-72
2024/01/14 09:04:28;;;;;;;1.58;0.80;;;;;;;18.80;39.66;100870.88;5006493;28;20041;-72
2024/01/14 09:06:54;;;;;;;2.72;1.10;;;;;;;18.76;39.74;100860.84;5026034;28;20041;-72
2024/01/14 09:09:19;;;;;;;2.17;0.98;;;;;;;18.77;39.71;100859.84;5028932;28;20060;-72
2024/01/14 09:11:45;;;;;;;1.95;1.15;;;;;;;18.75;39.95;100867.94;5023418;28;20057;-72
2024/01/14 09:14:11;;;;;;;2.72;0.93;;;;;;;18.68;39.76;100859.91;4998777;28;20051;-70
2024/01/14 09:16:37;;;;;;;2.95;1.10;;;;;;;18.69;39.87;100860.72;5022664;28;20378;-71
2024/01/14 09:19:02;;;;;;;3.67;1.02;;;;;;;18.69;39.76;100866.81;5020775;28;20046;-72
2024/01/14 09:21:28;;;;;;;2.78;1.05;;;;;;;18.61;39.70;100845.72;4994895;28;20041;-72
2024/01/14 09:23:53;;;;;;;2.78;1.00;;;;;;;18.61;39.72;100858.91;5006445;28;20048;-72
2024/01/14 09:26:19;;;;;;;1.85;0.88;;;;;;;18.58;39.63;100839.97;5027705;28;20133;-72
2024/01/14 09:28:45;;;;;;;1.60;0.65;;;;;;;18.66;39.76;100863.69;5027517;28;20025;-72
2024/01/14 09:31:12;;;;;;;1.02;0.80;;;;;;;18.60;39.89;100844.06;5030842;28;20370;-72
2024/01/14 09:33:38;;;;;;;1.73;0.98;;;;;;;18.75;39.41;100852.13;5006274;28;20057;-72
2024/01/14 09:36:08;;;;;;;0.85;0.57;;;;;;;18.81;39.19;100846.16;5025415;28;20367;-72
2024/01/14 09:38:34;;;;;;;0.82;0.45;;;;;;;18.87;39.34;100852.56;5025632;28;20373;-72
2024/01/14 09:41:18;;;;;;;1.88;0.85;;;;;;;18.67;39.49;100838.94;5011072;28;20025;-72
2024/01/14 09:43:49;;;;;;;2.50;0.88;;;;;;;18.63;39.91;100848.19;5027378;28;20048;-72
2024/01/14 09:46:15;;;;;;;1.83;1.02;;;;;;;18.58;39.73;100829.41;5027188;28;20033;-72
2024/01/14 09:48:43;;;;;;;4.45;1.70;;;;;;;18.62;40.16;100843.91;5027141;28;20778;-73
2024/01/14 09:51:10;;;;;;;1.83;0.40;;;;;;;18.76;39.64;100827.38;5027384;28;20076;-73
2024/01/14 09:53:37;;;;;;;3.03;0.88;;;;;;;18.82;39.62;100829.31;5013716;28;20066;-73
2024/01/14 09:56:07;;;;;;;3.33;1.38;;;;;;;18.93;39.44;100836.84;5023337;28;20577;-79
2024/01/14 09:58:33;;;;;;;;;;;;;;;19.04;39.25;100848.03;5027853;28;20037;-77
2024/01/14 10:01:04;;;;;;;0.80;0.75;;;;;;;18.99;39.40;100830.88;5029278;28;19990;-77
2024/01/14 10:03:29;;;;;;;2.15;0.85;;;;;;;19.02;39.37;100837.63;5028710;28;20537;-78
2024/01/14 10:05:56;;;;;;;0.55;0.55;;;;;;;19.00;39.31;100843.06;5027727;28;20477;-78
2024/01/14 10:08:22;;;;;;;1.92;0.82;;;;;;;18.97;39.30;100827.59;5028224;28;20370;-78
2024/01/14 10:10:54;;;;;;;3.53;0.82;;;;;;;18.98;39.35;100839.78;5030771;28;20049;-79
2024/01/14 10:13:21;;;;;;;2.10;0.80;;;;;;;18.75;39.42;100801.19;5026609;28;20072;-78
2024/01/14 10:15:47;;;;;;;1.83;0.93;;;;;;;18.81;39.30;100814.47;5025960;28;20680;-77
2024/01/14 10:18:13;;;;;;;1.90;1.02;;;;;;;19.02;39.24;100837.63;5008059;28;20048;-76
2024/01/14 10:20:38;;;;;;;2.92;0.93;;;;;;;19.02;39.38;100835.78;5014584;28;20049;-77
2024/01/14 10:23:04;;;;;;;2.05;0.77;;;;;;;18.61;40.10;100827.25;5014118;28;20056;-77
2024/01/14 10:25:30;;;;;;;2.85;1.15;;;;;;;18.77;40.14;100822.94;5026788;28;20066;-77
2024/01/14 10:27:56;;;;;;;4.47;0.90;;;;;;;18.71;39.89;100784.88;5026692;28;20064;-76
2024/01/14 10:30:23;;;;;;;2.00;0.90;;;;;;;19.09;39.60;100795.53;5026005;28;20124;-77
2024/01/14 10:32:50;;;;;;;1.55;0.70;;;;;;;19.27;39.29;100798.69;5013061;28;20091;-77
2024/01/14 10:35:15;;;;;;;3.53;1.77;;;;;;;19.33;39.30;100795.34;5026718;28;20037;-76
2024/01/14 10:37:41;;;;;;;1.60;0.82;;;;;;;19.22;39.59;100788.69;5024843;28;20618;-77
2024/01/14 10:40:08;;;;;;;1.75;1.02;;;;;;;19.25;39.75;100790.97;5011270;28;20401;-77
2024/01/14 10:42:37;;;;;;;1.10;1.00;;;;;;;19.14;39.77;100795.81;5030037;28;20644;-78
2024/01/14 10:45:06;;;;;;;7.03;1.83;;;;;;;19.23;39.69;100784.22;5026543;28;20045;-78
2024/01/14 10:47:34;;;;;;;2.63;1.25;;;;;;;19.17;39.83;100782.25;5021809;28;20964;-77
2024/01/14 10:50:00;;;;;;;2.42;2.00;;;;;;;19.16;39.78;100777.97;5027580;28;20052;-77
2024/01/14 10:52:33;;;;;;;2.45;1.67;;;;;;;19.30;39.33;100775.41;5016652;28;20134;-76
2024/01/14 10:55:16;;;;;;;1.65;1.15;;;;;;;19.36;39.13;100762.47;5022822;28;20129;-77
2024/01/14 10:57:44;;;;;;;2.00;1.10;;;;;;;19.39;38.96;100770.03;5024666;28;20029;-77
2024/01/14 11:00:14;;;;;;;3.50;2.45;;;;;;;19.29;39.29;100757.09;5010508;28;20049;-77
2024/01/14 11:02:40;;;;;;;5.05;3.58;;;;;;;19.05;39.67;100750.19;5025556;28;20534;-78
2024/01/14 11:05:07;;;;;;;4.10;2.70;;;;;;;19.02;39.93;100761.09;5032914;28;20040;-78
2024/01/14 11:07:34;;;;;;;1.60;0.75;;;;;;;19.12;39.94;100756.41;5027084;28;20148;-78
2024/01/14 11:10:04;;;;;;;3.58;0.95;;;;;;;19.16;39.79;100749.78;5025201;28;20045;-78
2024/01/14 11:12:39;;;;;;;1.42;0.68;;;;;;;19.21;39.78;100750.06;5013779;28;20152;-77
2024/01/14 11:15:17;;;;;;;1.60;0.90;;;;;;;19.23;39.97;100744.63;5023061;28;20045;-79
2024/01/14 11:17:45;;;;;;;2.50;1.17;;;;;;;19.20;39.81;100740.50;5022631;28;20029;-78
2024/01/14 11:20:16;;;;;;;1.85;1.00;;;;;;;19.14;39.76;100728.00;5028536;28;20041;-78
2024/01/14 11:22:42;;;;;;;1.42;1.08;;;;;;;19.37;39.42;100738.53;5020734;28;21004;-78